createdAt,value
2022-08-22T00:02:29.017Z,20.50
2022-08-22T00:02:47.158Z,20.61
2022-08-22T00:03:00.571Z,21.02
2022-08-22T00:05:59.868Z,20.55
2022-08-22T00:09:52.399Z,20.61
2022-08-22T00:13:25.566Z,20.61
2022-08-22T00:17:20.966Z,20.68
2022-08-22T00:20:49.670Z,20.70
2022-08-22T00:24:47.876Z,20.70
2022-08-22T00:28:20.073Z,20.68
2022-08-22T00:31:50.804Z,20.72
2022-08-22T00:35:24.349Z,20.70
2022-08-22T00:38:54.814Z,20.30
2022-08-22T00:42:52.165Z,20.08
2022-08-22T00:46:34.584Z,20.09
2022-08-22T00:50:15.017Z,19.97
2022-08-22T00:53:47.829Z,19.96
2022-08-22T00:57:27.813Z,19.99
2022-08-22T01:01:01.790Z,20.12
2022-08-22T01:04:35.407Z,20.23
2022-08-22T01:08:20.861Z,19.99
2022-08-22T01:11:54.832Z,19.96
2022-08-22T01:15:23.287Z,19.93
2022-08-22T01:19:17.168Z,20.08
2022-08-22T01:23:18.779Z,20.20
2022-08-22T01:26:52.405Z,20.30
2022-08-22T01:30:39.132Z,20.45
2022-08-22T01:34:30.034Z,20.55
2022-08-22T01:37:54.356Z,20.55
2022-08-22T01:41:51.217Z,20.60
2022-08-22T01:45:45.940Z,20.52
2022-08-22T01:49:35.430Z,20.54
2022-08-22T01:53:08.309Z,20.47
2022-08-22T01:56:45.809Z,20.33
2022-08-22T02:00:17.142Z,20.33
2022-08-22T02:03:55.517Z,20.45
2022-08-22T02:07:32.237Z,20.48
2022-08-22T02:11:07.826Z,20.22
2022-08-22T02:14:32.861Z,20.06
2022-08-22T02:18:06.809Z,19.76
2022-08-22T02:21:49.968Z,19.90
2022-08-22T02:25:19.805Z,20.00
2022-08-22T02:29:12.804Z,20.03
2022-08-22T02:32:42.731Z,19.95
2022-08-22T02:36:25.101Z,20.06
2022-08-22T02:40:02.227Z,20.09
2022-08-22T02:43:37.910Z,20.14
2022-08-22T02:47:15.326Z,20.24
2022-08-22T02:50:47.730Z,20.19
2022-08-22T02:54:18.754Z,20.31
2022-08-22T02:58:13.909Z,19.90
2022-08-22T03:01:48.901Z,19.85
2022-08-22T03:05:50.507Z,19.99
2022-08-22T03:09:15.102Z,20.08
2022-08-22T03:12:39.829Z,20.13
2022-08-22T03:16:11.011Z,20.05
2022-08-22T03:19:44.337Z,20.12
2022-08-22T03:23:15.931Z,20.13
2022-08-22T03:26:43.202Z,20.13
2022-08-22T03:30:33.774Z,20.22
2022-08-22T03:34:24.678Z,20.24
2022-08-22T03:37:46.359Z,20.19
2022-08-22T03:41:17.693Z,20.20
2022-08-22T03:44:45.203Z,20.30
2022-08-22T03:48:31.807Z,20.31
2022-08-22T03:52:20.918Z,20.30
2022-08-22T03:55:47.697Z,20.37
2022-08-22T03:59:42.473Z,20.13
2022-08-22T04:03:42.254Z,20.19
2022-08-22T04:07:03.946Z,20.14
2022-08-22T04:10:42.468Z,20.24
2022-08-22T04:14:16.141Z,20.39
2022-08-22T04:17:55.555Z,20.41
2022-08-22T04:21:44.151Z,20.36
2022-08-22T04:25:11.306Z,20.48
2022-08-22T04:28:54.051Z,20.54
2022-08-22T04:32:43.614Z,20.61
2022-08-22T04:36:31.058Z,20.67
2022-08-22T04:40:03.115Z,20.51
2022-08-22T04:43:33.245Z,20.68
2022-08-22T04:47:02.945Z,20.50
2022-08-22T04:50:48.049Z,20.68
2022-08-22T04:54:31.080Z,20.50
2022-08-22T04:58:30.499Z,20.68
2022-08-22T05:02:06.201Z,20.74
2022-08-22T05:17:02.551Z,21.77
2022-08-22T05:20:28.435Z,22.18
2022-08-22T05:24:01.565Z,22.29
2022-08-22T05:27:35.452Z,22.64
2022-08-22T05:31:00.902Z,22.77
2022-08-22T05:34:26.455Z,22.76
2022-08-22T05:37:53.926Z,22.57
2022-08-22T05:41:26.457Z,22.80
2022-08-22T05:44:48.554Z,23.04
2022-08-22T05:48:30.191Z,23.19
2022-08-22T05:52:28.146Z,23.29
2022-08-22T05:56:03.774Z,23.34
2022-08-22T05:59:29.795Z,23.31
2022-08-22T06:02:55.695Z,23.51
2022-08-22T06:06:21.417Z,23.52
2022-08-22T06:09:45.983Z,23.67
2022-08-22T06:13:14.186Z,23.56
2022-08-22T06:16:56.305Z,23.35
2022-08-22T06:20:40.341Z,23.62
2022-08-22T06:24:05.340Z,23.69
2022-08-22T06:27:34.121Z,23.66
2022-08-22T06:30:57.440Z,23.72
2022-08-22T06:34:30.988Z,23.67
2022-08-22T06:37:59.787Z,23.42
2022-08-22T06:41:31.248Z,23.58
2022-08-22T06:45:22.250Z,23.77
2022-08-22T06:48:45.533Z,23.73
2022-08-22T06:52:12.843Z,24.07
2022-08-22T06:55:40.684Z,24.20
2022-08-22T06:59:07.601Z,23.62
2022-08-22T07:02:42.787Z,23.55
2022-08-22T07:06:04.781Z,23.37
2022-08-22T07:09:34.702Z,23.27
2022-08-22T07:12:56.963Z,23.15
2022-08-22T07:16:32.003Z,22.79
2022-08-22T07:20:24.666Z,22.63
2022-08-22T07:23:48.208Z,22.56
2022-08-22T07:27:50.860Z,22.63
2022-08-22T07:31:45.590Z,22.63
2022-08-22T07:35:19.618Z,23.06
2022-08-22T07:38:47.728Z,23.37
2022-08-22T07:42:17.561Z,23.83
2022-08-22T07:45:57.225Z,24.25
2022-08-22T07:49:30.671Z,24.76
2022-08-22T07:52:57.273Z,24.83
2022-08-22T07:56:28.468Z,24.97
2022-08-22T07:59:59.867Z,25.03
2022-08-22T08:03:24.049Z,24.78
2022-08-22T08:06:51.005Z,24.65
2022-08-22T08:10:18.707Z,24.73
2022-08-22T08:13:42.333Z,24.86
2022-08-22T08:17:17.489Z,24.97
2022-08-22T08:20:39.494Z,25.10
2022-08-22T08:24:02.173Z,25.06
2022-08-22T08:27:50.114Z,24.78
2022-08-22T08:31:27.083Z,24.64
2022-08-22T08:34:49.463Z,24.54
2022-08-22T08:38:24.185Z,24.47
2022-08-22T08:41:51.953Z,24.38
2022-08-22T08:45:53.463Z,24.49
2022-08-22T08:49:45.502Z,24.62
2022-08-22T08:53:35.433Z,24.72
2022-08-22T08:57:21.502Z,24.32
2022-08-22T09:01:19.529Z,24.22
2022-08-22T09:05:07.170Z,24.49
2022-08-22T09:08:53.847Z,24.95
2022-08-22T09:12:26.622Z,25.07
2022-08-22T09:16:31.877Z,24.92
2022-08-22T09:20:17.918Z,25.07
2022-08-22T09:23:53.336Z,25.00
2022-08-22T09:27:30.267Z,24.89
2022-08-22T09:31:21.155Z,24.79
2022-08-22T09:35:07.416Z,24.48
2022-08-22T09:38:32.384Z,24.47
2022-08-22T09:42:08.144Z,24.51
2022-08-22T09:45:47.131Z,24.55
2022-08-22T09:49:54.297Z,24.41
2022-08-22T09:53:36.387Z,24.32
2022-08-22T09:57:19.937Z,24.31
2022-08-22T10:01:10.608Z,24.41
2022-08-22T10:04:42.486Z,24.37
2022-08-22T10:08:29.450Z,24.38
2022-08-22T10:12:12.878Z,24.37
2022-08-22T10:15:56.759Z,24.45
2022-08-22T10:19:28.643Z,24.49
2022-08-22T10:23:24.186Z,24.58
2022-08-22T10:26:53.859Z,24.61
2022-08-22T10:30:25.717Z,24.68
2022-08-22T10:34:09.078Z,24.32
2022-08-22T10:37:40.622Z,24.76
2022-08-22T10:41:23.099Z,25.09
2022-08-22T10:45:10.324Z,25.37
2022-08-22T10:48:52.046Z,25.65
2022-08-22T10:53:09.634Z,25.53
2022-08-22T10:56:48.658Z,24.92
2022-08-22T11:00:46.379Z,24.73
2022-08-22T11:04:38.604Z,24.72
2022-08-22T11:08:20.758Z,25.44
2022-08-22T11:11:52.004Z,25.00
2022-08-22T11:15:26.226Z,25.26
2022-08-22T11:19:22.789Z,25.75
2022-08-22T11:23:48.255Z,25.37
2022-08-22T11:27:25.384Z,26.26
2022-08-22T11:31:07.299Z,26.56
2022-08-22T11:34:53.918Z,26.50
2022-08-22T11:38:39.844Z,26.28
2022-08-22T11:42:21.985Z,26.02
2022-08-22T11:45:47.591Z,25.67
2022-08-22T11:49:32.615Z,25.55
2022-08-22T11:53:22.644Z,25.55
2022-08-22T11:57:03.523Z,25.51
2022-08-22T12:00:32.710Z,25.38
2022-08-22T12:04:09.871Z,25.35
2022-08-22T12:07:37.957Z,25.28
2022-08-22T12:11:21.119Z,25.31
2022-08-22T12:14:51.672Z,25.45
2022-08-22T12:18:41.915Z,25.45
2022-08-22T12:22:06.360Z,25.57
2022-08-22T12:25:50.496Z,25.43
2022-08-22T12:29:34.118Z,25.37
2022-08-22T12:33:34.896Z,25.45
2022-08-22T12:37:23.307Z,25.15
2022-08-22T12:41:09.438Z,25.07
2022-08-22T12:44:39.017Z,25.28
2022-08-22T12:48:21.896Z,25.34
2022-08-22T12:52:13.398Z,25.55
2022-08-22T12:56:11.348Z,25.75
2022-08-22T12:59:43.261Z,25.75
2022-08-22T13:03:11.425Z,25.53
2022-08-22T13:06:36.032Z,25.41
2022-08-22T13:10:32.144Z,25.28
2022-08-22T13:14:03.588Z,25.12
2022-08-22T13:17:25.933Z,24.89
2022-08-22T13:20:51.740Z,24.06
2022-08-22T13:24:38.422Z,23.96
2022-08-22T13:28:04.155Z,23.73
2022-08-22T13:31:28.838Z,23.62
2022-08-22T13:34:55.753Z,23.61
2022-08-22T13:38:46.845Z,23.24
2022-08-22T13:42:28.874Z,23.46
2022-08-22T13:46:03.588Z,23.51
2022-08-22T13:50:37.552Z,23.73
2022-08-22T13:54:12.511Z,23.41
2022-08-22T13:57:52.152Z,23.28
2022-08-22T14:01:50.653Z,23.25
2022-08-22T14:05:22.164Z,23.21
2022-08-22T14:08:47.358Z,23.18
2022-08-22T14:12:23.214Z,23.22
2022-08-22T14:15:46.309Z,23.12
2022-08-22T14:19:31.945Z,23.00
2022-08-22T14:23:08.718Z,22.64
2022-08-22T14:26:37.338Z,22.45
2022-08-22T14:30:17.194Z,22.35
2022-08-22T14:34:14.238Z,22.19
2022-08-22T14:37:41.807Z,22.15
2022-08-22T14:41:28.603Z,22.12
2022-08-22T14:45:36.910Z,22.21
2022-08-22T14:49:11.116Z,22.16
2022-08-22T14:52:48.577Z,22.19
2022-08-22T14:56:15.332Z,22.28
2022-08-22T14:59:51.825Z,22.28
2022-08-22T15:03:32.256Z,22.40
2022-08-22T15:06:58.975Z,22.42
2022-08-22T15:10:31.546Z,22.53
2022-08-22T15:14:02.395Z,22.57
2022-08-22T15:17:50.892Z,22.80
2022-08-22T15:21:32.978Z,23.18
2022-08-22T15:25:14.758Z,23.06
2022-08-22T15:28:52.260Z,22.80
2022-08-22T15:32:20.925Z,22.80
2022-08-22T15:35:44.203Z,22.83
2022-08-22T15:39:39.152Z,22.87
2022-08-22T15:43:38.007Z,23.11
2022-08-22T15:47:25.491Z,23.39
2022-08-22T15:51:03.389Z,23.59
2022-08-22T15:54:51.436Z,23.56
2022-08-22T15:58:25.369Z,23.17
2022-08-22T16:01:54.301Z,23.06
2022-08-22T16:05:15.957Z,22.81
2022-08-22T16:08:51.606Z,22.83
2022-08-22T16:12:47.710Z,23.00
2022-08-22T16:16:13.965Z,23.00
2022-08-22T16:19:36.580Z,23.00
2022-08-22T16:23:00.339Z,22.90
2022-08-22T16:26:24.925Z,22.71
2022-08-22T16:29:48.791Z,22.80
2022-08-22T16:33:18.321Z,23.12
2022-08-22T16:37:05.944Z,23.04
2022-08-22T16:40:30.276Z,23.21
2022-08-22T16:44:29.366Z,23.49
2022-08-22T16:47:58.288Z,23.80
2022-08-22T16:51:22.656Z,23.94
2022-08-22T16:54:49.167Z,23.70
2022-08-22T16:58:56.590Z,23.42
2022-08-22T17:02:24.712Z,23.56
2022-08-22T17:06:01.626Z,23.37
2022-08-22T17:09:32.288Z,23.01
2022-08-22T17:13:28.731Z,23.22
2022-08-22T17:17:03.543Z,23.08
2022-08-22T17:20:45.333Z,23.25
2022-08-22T17:24:54.097Z,23.24
2022-08-22T17:28:37.188Z,23.35
2022-08-22T17:31:58.905Z,23.48
2022-08-22T17:35:45.481Z,23.38
2022-08-22T17:39:10.769Z,23.35
2022-08-22T17:42:44.866Z,23.42
2022-08-22T17:46:13.430Z,23.31
2022-08-22T17:49:41.326Z,23.42
2022-08-22T17:53:08.273Z,23.46
2022-08-22T17:56:47.375Z,23.31
2022-08-22T18:00:35.092Z,23.27
2022-08-22T18:04:01.182Z,23.29
2022-08-22T18:07:25.518Z,23.27
2022-08-22T18:11:03.050Z,23.28
2022-08-22T18:14:57.383Z,23.14
2022-08-22T18:18:29.953Z,23.06
2022-08-22T18:21:58.304Z,23.01
2022-08-22T18:25:19.828Z,23.07
2022-08-22T18:28:52.681Z,23.15
2022-08-22T18:32:14.291Z,23.07
2022-08-22T18:35:41.950Z,23.15
2022-08-22T18:39:16.556Z,23.22
2022-08-22T18:42:50.639Z,23.15
2022-08-22T18:46:36.376Z,23.31
2022-08-22T18:49:59.827Z,23.39
2022-08-22T18:53:36.469Z,23.29
2022-08-22T18:57:05.621Z,23.19
2022-08-22T19:00:50.266Z,23.32
2022-08-22T19:04:48.979Z,23.38
2022-08-22T19:08:37.037Z,23.39
2022-08-22T19:12:36.386Z,23.38
2022-08-22T19:16:09.870Z,23.29
2022-08-22T19:20:04.322Z,23.32
2022-08-22T19:23:40.492Z,23.45
2022-08-22T19:27:10.892Z,23.51
2022-08-22T19:31:01.640Z,23.52
2022-08-22T19:34:28.248Z,23.48
2022-08-22T19:37:56.776Z,23.32
2022-08-22T19:41:37.069Z,23.12
2022-08-22T19:45:18.753Z,22.60
2022-08-22T19:48:50.333Z,22.52
2022-08-22T19:52:28.720Z,22.53
2022-08-22T19:56:35.976Z,22.80
2022-08-22T20:00:16.164Z,22.73
2022-08-22T20:03:53.523Z,22.50
2022-08-22T20:07:40.417Z,22.45
2022-08-22T20:11:20.615Z,22.66
2022-08-22T20:14:44.621Z,22.66
2022-08-22T20:18:12.214Z,22.64
2022-08-22T20:21:46.258Z,22.76
2022-08-22T20:25:41.796Z,22.81
2022-08-22T20:29:08.063Z,22.79
2022-08-22T20:32:31.543Z,22.86
2022-08-22T20:36:02.433Z,22.86
2022-08-22T20:39:31.725Z,22.93
2022-08-22T20:43:03.959Z,22.84
2022-08-22T20:47:00.610Z,23.07
2022-08-22T20:50:25.848Z,23.11
2022-08-22T20:53:55.054Z,23.06
2022-08-22T20:57:22.812Z,22.97
2022-08-22T21:00:46.203Z,22.61
2022-08-22T21:04:13.093Z,22.33
2022-08-22T21:07:45.297Z,22.21
2022-08-22T21:11:26.733Z,21.97
2022-08-22T21:14:48.948Z,21.91
2022-08-22T21:18:35.037Z,21.94
2022-08-22T21:22:29.258Z,21.81
2022-08-22T21:26:05.101Z,21.85
2022-08-22T21:29:32.728Z,21.88
2022-08-22T21:32:56.640Z,21.98
2022-08-22T21:36:25.071Z,21.91
2022-08-22T21:39:51.069Z,21.80
2022-08-22T21:43:30.838Z,21.78
2022-08-22T21:46:57.720Z,21.77
2022-08-22T21:50:23.581Z,21.87
2022-08-22T21:53:47.929Z,21.87
2022-08-22T21:57:33.680Z,21.80
2022-08-22T22:01:00.195Z,21.74
2022-08-22T22:04:21.923Z,21.78
2022-08-22T22:07:46.125Z,21.51
2022-08-22T22:11:14.477Z,21.57
2022-08-22T22:14:36.383Z,21.67
2022-08-22T22:18:03.229Z,21.78
2022-08-22T22:21:27.314Z,21.46
2022-08-22T22:24:48.883Z,21.57
2022-08-22T22:28:15.799Z,21.68
2022-08-22T22:31:37.471Z,21.68
2022-08-22T22:34:59.817Z,21.71
2022-08-22T22:38:24.306Z,21.81
2022-08-22T22:41:48.223Z,21.83
2022-08-22T22:45:10.832Z,21.58
2022-08-22T22:48:35.267Z,21.35
2022-08-22T22:51:58.045Z,21.39
2022-08-22T22:55:24.264Z,21.19
2022-08-22T22:59:00.820Z,21.13
2022-08-22T23:02:36.194Z,20.94
2022-08-22T23:06:00.086Z,20.74
2022-08-22T23:09:21.673Z,20.40
2022-08-22T23:12:52.136Z,20.68
2022-08-22T23:16:18.366Z,20.92
2022-08-22T23:19:40.107Z,20.98
2022-08-22T23:23:01.705Z,20.92
2022-08-22T23:26:23.854Z,20.67
2022-08-22T23:29:46.204Z,20.68
2022-08-22T23:33:10.089Z,20.87
2022-08-22T23:36:31.875Z,20.89
2022-08-22T23:39:53.585Z,20.99
2022-08-22T23:43:15.182Z,21.00
2022-08-22T23:46:39.717Z,20.89
2022-08-22T23:50:06.287Z,20.89
2022-08-22T23:53:30.575Z,20.57
2022-08-22T23:56:59.704Z,20.57
